Volgodonsk, Russia
Current Conditions -  °F | °C
As of 10:30 PM on Sunday 23 Nov 2014 (Local Time) from URRR Reporting Station
Clear Clear  
Wind Chill: 21°   Ceiling: Unl
Heat Index: 27°   Visibility: 5mi
Dew Point: 19°   Wind: 4mph
Humidity: 74%   Direction: 30°NNE
Pressure: 30.36"   Gusts: NA
Location:  47.51°N, 42.15°E
Report Text: URRR 231930Z 03002MPS 350V100 P8000 NSC M03/M07 Q1028 04CLRD70NOSIG
Loading
Personal Weather Stations






























Interactive Weather Map New forecast layout! Learn more

10-Day Weather Forecast

Advertisements
Track Severe Weather on mobile